Time;durP1;ratioP1;P1;durP2;ratioP2;P2;SDS_P1;SDS_P2;PMS_P1;PMS_P2;Temp;Humidity;BMP_temperature;BMP_pressure;BME280_temperature;BME280_humidity;BME280_pressure;Samples;Min_cycle;Max_cycle;Signal;HPM_P1;HPM_P2
2021/09/27 00:02:10;;;;;;;5.93;5.43;;;19.80;99.90;;;;;;5109647;28;20310;-74
2021/09/27 00:04:38;;;;;;;6.03;5.43;;;19.80;99.90;;;;;;5109572;28;20283;-74
2021/09/27 00:07:05;;;;;;;5.87;5.47;;;19.80;99.90;;;;;;5109180;28;20275;-75
2021/09/27 00:09:33;;;;;;;6.03;5.57;;;19.80;99.90;;;;;;5109154;28;20236;-75
2021/09/27 00:12:00;;;;;;;5.90;5.50;;;19.80;99.90;;;;;;5109668;28;20202;-76
2021/09/27 00:14:27;;;;;;;6.00;5.60;;;19.80;99.90;;;;;;5109516;28;20202;-75
2021/09/27 00:16:54;;;;;;;6.23;5.83;;;19.70;99.90;;;;;;5109605;28;20210;-75
2021/09/27 00:19:20;;;;;;;6.37;5.97;;;19.70;99.90;;;;;;5109153;28;20266;-75
2021/09/27 00:21:48;;;;;;;6.50;5.83;;;19.70;99.90;;;;;;5109326;28;20233;-75
2021/09/27 00:24:15;;;;;;;6.30;5.83;;;19.70;99.90;;;;;;5109555;28;20258;-76
2021/09/27 00:26:42;;;;;;;6.77;6.17;;;19.70;99.90;;;;;;5109623;28;20609;-75
2021/09/27 00:29:09;;;;;;;5.80;5.30;;;19.70;99.90;;;;;;5109497;28;20205;-75
2021/09/27 00:31:35;;;;;;;6.13;5.73;;;19.70;99.90;;;;;;5109258;28;20279;-76
2021/09/27 00:34:02;;;;;;;6.10;5.70;;;19.60;99.90;;;;;;5109536;28;20306;-75
2021/09/27 00:36:29;;;;;;;5.97;5.57;;;19.60;99.90;;;;;;5109410;28;20230;-76
2021/09/27 00:38:56;;;;;;;6.43;5.93;;;19.60;99.90;;;;;;5108985;28;20326;-76
2021/09/27 00:41:23;;;;;;;6.57;6.07;;;19.60;99.90;;;;;;5109137;28;20276;-75
2021/09/27 00:43:51;;;;;;;6.70;6.23;;;19.60;99.90;;;;;;5109233;28;20263;-75
2021/09/27 00:46:20;;;;;;;6.33;5.83;;;19.50;99.90;;;;;;5108869;28;20255;-75
2021/09/27 00:48:47;;;;;;;6.87;6.33;;;19.50;99.90;;;;;;5108999;28;20246;-75
2021/09/27 00:51:16;;;;;;;6.40;5.90;;;19.60;99.90;;;;;;5108597;28;20679;-75
2021/09/27 00:53:46;;;;;;;6.37;5.97;;;19.50;99.90;;;;;;5108871;28;20229;-75
2021/09/27 00:56:17;;;;;;;6.13;5.73;;;19.50;99.90;;;;;;5109097;28;20217;-75
2021/09/27 00:58:44;;;;;;;7.00;6.30;;;19.50;99.90;;;;;;5108370;28;20230;-75
2021/09/27 01:01:11;;;;;;;5.67;5.27;;;19.40;99.90;;;;;;5109167;28;20682;-74
2021/09/27 01:03:37;;;;;;;7.23;6.30;;;19.50;99.90;;;;;;5108795;28;20218;-75
2021/09/27 01:06:20;;;;;;;7.17;6.57;;;19.50;99.90;;;;;;5111324;28;20222;-75
2021/09/27 01:08:58;;;;;;;6.93;6.40;;;19.50;99.90;;;;;;5113055;28;20229;-75
2021/09/27 01:11:51;;;;;;;6.73;6.13;;;19.40;99.90;;;;;;5112986;28;20198;-75
2021/09/27 01:14:35;;;;;;;6.17;5.77;;;19.30;99.90;;;;;;5105984;28;20287;-74
2021/09/27 01:17:14;;;;;;;6.53;6.03;;;19.40;99.90;;;;;;5092407;28;20218;-74
2021/09/27 01:20:21;;;;;;;6.50;6.03;;;19.30;99.90;;;;;;5091916;28;20257;-74
2021/09/27 01:23:10;;;;;;;6.87;6.30;;;19.10;99.90;;;;;;5091804;28;20721;-74
2021/09/27 01:26:09;;;;;;;6.53;6.13;;;19.20;99.90;;;;;;5092048;28;20227;-74
2021/09/27 01:29:07;;;;;;;8.50;6.23;;;19.20;99.90;;;;;;5092061;28;20234;-74
2021/09/27 01:32:05;;;;;;;6.67;6.17;;;19.20;99.90;;;;;;5091913;28;20191;-74
2021/09/27 01:34:37;;;;;;;7.57;6.57;;;19.10;99.90;;;;;;5091819;28;20202;-74
2021/09/27 01:37:12;;;;;;;6.90;6.40;;;19.10;99.90;;;;;;5092132;28;20218;-74
2021/09/27 01:39:44;;;;;;;7.77;7.17;;;19.10;99.90;;;;;;5091427;28;20664;-74
2021/09/27 01:42:19;;;;;;;7.17;6.60;;;19.10;99.90;;;;;;5092223;28;20230;-74
2021/09/27 01:44:51;;;;;;;7.90;6.60;;;19.00;99.90;;;;;;5092037;28;20264;-74
2021/09/27 01:47:25;;;;;;;6.53;6.03;;;19.00;99.90;;;;;;5091968;28;20190;-74
2021/09/27 01:49:57;;;;;;;7.33;6.83;;;19.00;99.90;;;;;;5091458;28;20652;-75
2021/09/27 01:52:29;;;;;;;7.13;6.47;;;19.00;99.90;;;;;;5091753;28;20207;-75
2021/09/27 01:55:05;;;;;;;6.70;6.23;;;19.00;99.90;;;;;;5091606;28;20222;-74
2021/09/27 01:57:39;;;;;;;7.93;7.23;;;19.00;99.90;;;;;;5091309;28;20258;-75
2021/09/27 02:00:11;;;;;;;7.17;6.67;;;19.00;99.90;;;;;;5090246;28;20663;-74
2021/09/27 02:02:47;;;;;;;7.67;7.07;;;19.00;99.90;;;;;;5090027;28;20271;-74
2021/09/27 02:05:20;;;;;;;8.33;7.50;;;19.00;99.90;;;;;;5090125;28;20268;-74
2021/09/27 02:07:53;;;;;;;6.97;6.47;;;19.00;99.90;;;;;;5089932;28;20195;-73
2021/09/27 02:10:24;;;;;;;7.40;6.80;;;19.00;99.90;;;;;;5089870;28;20722;-73
2021/09/27 02:12:56;;;;;;;7.33;6.80;;;19.00;99.90;;;;;;5089838;28;20238;-73
2021/09/27 02:15:28;;;;;;;7.30;6.80;;;19.00;99.90;;;;;;5090018;28;20226;-75
2021/09/27 02:18:03;;;;;;;7.80;7.17;;;19.00;99.90;;;;;;5089992;28;20199;-75
2021/09/27 02:20:34;;;;;;;7.80;7.10;;;19.00;99.90;;;;;;5090224;28;20303;-75
2021/09/27 02:23:05;;;;;;;6.97;6.47;;;19.00;99.90;;;;;;5089879;28;20686;-75
2021/09/27 02:25:34;;;;;;;7.20;6.60;;;19.00;99.90;;;;;;5089723;28;20209;-75
2021/09/27 02:28:04;;;;;;;7.57;6.87;;;19.00;99.90;;;;;;5089374;28;20207;-75
2021/09/27 02:30:41;;;;;;;7.40;6.90;;;19.00;99.90;;;;;;5090282;28;20236;-74
2021/09/27 02:33:17;;;;;;;7.33;6.73;;;19.00;99.90;;;;;;5113942;28;20255;-72
2021/09/27 02:35:50;;;;;;;6.80;6.40;;;18.90;99.90;;;;;;5089443;28;20611;-75
2021/09/27 02:38:23;;;;;;;6.63;6.03;;;19.00;99.90;;;;;;5089854;28;20187;-74
2021/09/27 02:40:56;;;;;;;6.97;6.47;;;19.00;99.90;;;;;;5089553;28;20744;-75
2021/09/27 02:43:24;;;;;;;7.13;6.53;;;19.00;99.90;;;;;;5103856;28;20279;-74
2021/09/27 02:45:51;;;;;;;6.93;6.43;;;19.00;99.90;;;;;;5106118;28;20210;-74
2021/09/27 02:48:31;;;;;;;7.03;6.43;;;19.00;99.90;;;;;;5106256;28;20708;-74
2021/09/27 02:50:58;;;;;;;6.70;6.30;;;19.00;99.90;;;;;;5106168;28;20233;-75
2021/09/27 02:53:25;;;;;;;7.13;6.63;;;19.00;99.90;;;;;;5106108;28;20290;-76
2021/09/27 02:56:12;;;;;;;7.43;6.70;;;19.00;99.90;;;;;;5105780;28;20261;-76
2021/09/27 02:58:43;;;;;;;7.63;6.87;;;19.00;99.90;;;;;;5071584;28;992608;-76
2021/09/27 03:01:16;;;;;;;7.17;6.57;;;19.00;99.90;;;;;;5106828;28;20327;-74
2021/09/27 03:03:59;;;;;;;7.83;7.23;;;18.90;99.90;;;;;;5106315;28;20295;-74
2021/09/27 03:06:36;;;;;;;7.43;6.70;;;18.90;99.90;;;;;;5106565;28;20705;-74
2021/09/27 03:09:10;;;;;;;7.80;6.97;;;18.90;99.90;;;;;;5107150;28;20190;-72
2021/09/27 03:11:50;;;;;;;7.37;6.73;;;18.90;99.90;;;;;;5107795;27;20230;-74
2021/09/27 03:14:36;;;;;;;7.47;6.90;;;18.90;99.90;;;;;;5086576;28;20199;-74
2021/09/27 03:17:10;;;;;;;7.83;7.13;;;18.90;99.90;;;;;;5102530;28;20288;-74
2021/09/27 03:19:55;;;;;;;7.50;6.90;;;18.90;99.90;;;;;;5108508;28;20210;-74
2021/09/27 03:22:32;;;;;;;8.47;6.43;;;18.90;99.90;;;;;;5107780;28;20194;-74
2021/09/27 03:25:13;;;;;;;7.23;6.73;;;18.80;99.90;;;;;;5108275;28;20213;-74
2021/09/27 03:27:49;;;;;;;7.90;7.13;;;18.80;99.90;;;;;;5107243;28;20687;-74
2021/09/27 03:30:20;;;;;;;7.80;7.30;;;18.80;99.90;;;;;;5108491;28;20279;-75
2021/09/27 03:32:59;;;;;;;7.23;6.63;;;18.80;99.90;;;;;;5108444;28;20232;-74
2021/09/27 03:35:38;;;;;;;7.63;7.03;;;18.90;99.90;;;;;;5109238;28;20668;-74
2021/09/27 03:38:11;;;;;;;7.47;6.77;;;18.90;99.90;;;;;;5109843;28;20556;-74
2021/09/27 03:41:08;;;;;;;7.87;7.30;;;18.80;99.90;;;;;;5104872;28;20268;-74
2021/09/27 03:43:44;;;;;;;6.60;6.20;;;18.80;99.90;;;;;;5043317;28;20664;-74
2021/09/27 03:46:16;;;;;;;7.50;7.00;;;18.90;99.90;;;;;;5089383;28;20191;-74
2021/09/27 03:48:48;;;;;;;7.33;6.73;;;18.80;99.90;;;;;;5089278;28;20233;-74
2021/09/27 03:51:20;;;;;;;7.40;6.77;;;18.80;99.90;;;;;;5089318;28;20227;-74
2021/09/27 03:53:51;;;;;;;7.73;7.03;;;18.80;99.90;;;;;;5088668;28;20790;-75
2021/09/27 03:56:22;;;;;;;7.40;6.80;;;18.80;99.90;;;;;;5089003;28;20351;-74
2021/09/27 03:58:54;;;;;;;7.57;6.83;;;18.80;99.90;;;;;;5088827;28;20267;-74
2021/09/27 04:01:28;;;;;;;7.70;7.07;;;18.80;99.90;;;;;;5089053;28;20246;-74
2021/09/27 04:04:11;;;;;;;8.53;7.27;;;18.70;99.90;;;;;;5088942;28;20226;-74
2021/09/27 04:06:48;;;;;;;7.53;6.93;;;18.70;99.90;;;;;;5088967;28;20244;-74
2021/09/27 04:09:25;;;;;;;8.77;7.97;;;18.70;99.90;;;;;;5088746;28;20190;-74
2021/09/27 04:11:59;;;;;;;7.97;7.33;;;18.70;99.90;;;;;;5088281;28;20996;-74
2021/09/27 04:14:32;;;;;;;7.67;7.17;;;18.70;99.90;;;;;;5088865;28;20195;-74
2021/09/27 04:17:06;;;;;;;7.77;7.20;;;18.60;99.90;;;;;;5088787;28;20191;-75
2021/09/27 04:19:46;;;;;;;7.30;6.80;;;18.60;99.90;;;;;;5088458;28;20656;-77
2021/09/27 04:22:20;;;;;;;7.93;7.23;;;18.60;99.90;;;;;;5088531;28;20971;-74
2021/09/27 04:25:03;;;;;;;7.70;7.10;;;18.70;99.90;;;;;;5088422;28;20640;-74
2021/09/27 04:27:50;;;;;;;7.60;6.90;;;18.70;99.90;;;;;;5088816;28;20187;-74
2021/09/27 04:30:31;;;;;;;7.63;7.00;;;18.70;99.90;;;;;;5088277;28;20653;-74
2021/09/27 04:33:14;;;;;;;7.97;7.30;;;18.70;99.90;;;;;;5088582;28;20570;-74
2021/09/27 04:35:49;;;;;;;7.73;7.17;;;18.60;99.90;;;;;;5088583;28;20745;-74
2021/09/27 04:38:18;;;;;;;8.27;7.47;;;18.60;99.90;;;;;;5088665;28;20191;-74
2021/09/27 04:41:07;;;;;;;8.03;7.43;;;18.60;99.90;;;;;;5088074;28;20238;-74
2021/09/27 04:43:45;;;;;;;7.47;6.97;;;18.60;99.90;;;;;;5088249;28;20245;-74
2021/09/27 04:46:16;;;;;;;7.93;7.27;;;18.60;99.90;;;;;;5088494;28;20199;-74
2021/09/27 04:49:04;;;;;;;7.50;7.00;;;18.70;99.90;;;;;;5088323;28;20615;-74
2021/09/27 04:51:43;;;;;;;7.33;6.70;;;18.70;99.90;;;;;;5088374;28;20191;-74
2021/09/27 04:54:47;;;;;;;8.23;7.47;;;18.70;99.90;;;;;;5088307;28;20195;-74
2021/09/27 04:57:25;;;;;;;7.70;7.07;;;18.70;99.90;;;;;;5064597;28;20214;-74
2021/09/27 05:00:01;;;;;;;7.17;6.73;;;18.70;99.90;;;;;;5088232;28;20656;-74
2021/09/27 05:03:11;;;;;;;8.00;6.80;;;18.70;99.90;;;;;;5088021;28;20615;-74
2021/09/27 05:05:51;;;;;;;7.60;7.10;;;18.70;99.90;;;;;;5088244;28;20190;-74
2021/09/27 05:08:45;;;;;;;8.20;7.40;;;18.70;99.90;;;;;;5088178;28;20222;-74
2021/09/27 05:11:26;;;;;;;7.97;7.40;;;18.70;99.90;;;;;;5088271;28;20240;-74
2021/09/27 05:14:28;;;;;;;7.70;7.20;;;18.70;99.90;;;;;;5088287;28;20256;-74
2021/09/27 05:17:06;;;;;;;8.30;7.70;;;18.60;99.90;;;;;;5087063;28;20683;-74
2021/09/27 05:20:02;;;;;;;8.80;8.10;;;18.60;99.90;;;;;;5088168;28;20191;-74
2021/09/27 05:22:57;;;;;;;8.33;7.63;;;18.60;99.90;;;;;;5088204;28;21085;-74
2021/09/27 05:25:49;;;;;;;7.80;7.30;;;18.70;99.90;;;;;;5088088;28;20187;-74
2021/09/27 05:28:37;;;;;;;7.87;7.27;;;18.60;99.90;;;;;;5087738;28;20653;-74
2021/09/27 05:31:32;;;;;;;8.30;7.50;;;18.60;99.90;;;;;;5087844;28;20344;-74
2021/09/27 05:34:12;;;;;;;8.07;7.40;;;18.60;99.90;;;;;;5087882;28;20203;-74
2021/09/27 05:36:55;;;;;;;9.23;7.77;;;18.60;99.90;;;;;;5087938;28;20634;-74
2021/09/27 05:39:37;;;;;;;8.00;7.40;;;18.60;99.90;;;;;;5088015;28;20280;-74
2021/09/27 05:42:09;;;;;;;7.60;7.00;;;18.60;99.90;;;;;;5087934;28;20233;-74
2021/09/27 05:44:51;;;;;;;10.67;7.47;;;18.60;99.90;;;;;;5087770;28;20657;-74
2021/09/27 05:47:29;;;;;;;7.80;7.20;;;18.60;99.90;;;;;;5089716;28;20198;-74
2021/09/27 05:50:09;;;;;;;10.90;7.57;;;18.60;99.90;;;;;;5087913;28;20244;-74
2021/09/27 05:52:44;;;;;;;8.13;7.33;;;18.60;99.90;;;;;;5091139;28;20248;-74
2021/09/27 05:55:22;;;;;;;8.20;7.50;;;18.60;99.90;;;;;;5091700;28;20191;-74
2021/09/27 05:57:54;;;;;;;7.80;7.10;;;18.60;99.90;;;;;;5091273;28;20292;-74
2021/09/27 06:00:27;;;;;;;8.10;7.33;;;18.70;99.90;;;;;;5091457;28;20285;-74
2021/09/27 06:03:22;;;;;;;7.80;7.20;;;18.70;99.90;;;;;;5091464;28;20244;-74
2021/09/27 06:05:55;;;;;;;7.83;7.13;;;18.70;99.90;;;;;;5091416;28;20621;-74
2021/09/27 06:08:26;;;;;;;8.23;7.53;;;18.70;99.90;;;;;;5091348;28;20245;-74
2021/09/27 06:11:01;;;;;;;7.70;7.10;;;18.70;99.90;;;;;;5091145;28;20199;-74
2021/09/27 06:13:31;;;;;;;8.53;7.77;;;18.70;99.90;;;;;;5091276;28;20199;-74
2021/09/27 06:16:07;;;;;;;8.23;7.03;;;18.70;99.90;;;;;;5094023;28;20241;-74
2021/09/27 06:18:47;;;;;;;8.13;7.43;;;18.70;99.90;;;;;;5111229;28;20220;-74
2021/09/27 06:21:34;;;;;;;8.37;7.67;;;18.70;99.90;;;;;;5111522;28;20310;-74
2021/09/27 06:24:19;;;;;;;8.50;7.70;;;18.70;99.90;;;;;;5111602;28;20190;-74
2021/09/27 06:26:51;;;;;;;7.90;7.30;;;18.70;99.90;;;;;;5111396;28;20222;-74
2021/09/27 06:29:25;;;;;;;8.10;7.40;;;18.80;99.90;;;;;;5111393;28;20259;-74
2021/09/27 06:32:02;;;;;;;8.67;7.63;;;18.80;99.90;;;;;;5110979;28;20636;-74
2021/09/27 06:34:34;;;;;;;7.87;7.37;;;18.80;99.90;;;;;;5110953;28;20656;-74
2021/09/27 06:37:03;;;;;;;8.13;7.43;;;18.80;99.90;;;;;;5111152;28;20190;-74
2021/09/27 06:39:32;;;;;;;8.33;7.73;;;18.80;99.90;;;;;;5110917;28;20712;-74
2021/09/27 06:41:59;;;;;;;7.67;7.00;;;18.80;99.90;;;;;;5110652;28;20242;-74
2021/09/27 06:44:25;;;;;;;8.00;7.20;;;18.80;99.90;;;;;;5111119;28;20210;-74
2021/09/27 06:46:54;;;;;;;7.70;7.10;;;18.90;99.90;;;;;;5110608;28;20612;-74
2021/09/27 06:49:21;;;;;;;8.30;7.53;;;18.90;99.90;;;;;;5110915;28;20206;-74
2021/09/27 06:51:49;;;;;;;8.87;7.73;;;18.90;99.90;;;;;;5111304;28;20202;-74
2021/09/27 06:54:18;;;;;;;7.57;7.03;;;18.90;99.90;;;;;;5110571;28;20573;-74
2021/09/27 06:56:46;;;;;;;8.47;7.60;;;19.00;99.90;;;;;;5110644;28;20206;-74
2021/09/27 06:59:14;;;;;;;8.23;7.53;;;19.00;99.90;;;;;;5110345;28;20226;-74
2021/09/27 07:01:41;;;;;;;7.93;7.33;;;19.00;99.90;;;;;;5110571;28;20905;-74
2021/09/27 07:04:09;;;;;;;8.10;7.50;;;19.00;99.90;;;;;;5109243;28;20221;-74
2021/09/27 07:06:35;;;;;;;8.20;7.60;;;19.10;99.90;;;;;;5110150;28;20586;-74
2021/09/27 07:09:02;;;;;;;7.80;7.10;;;19.10;99.90;;;;;;5110016;28;20202;-74
2021/09/27 07:11:29;;;;;;;8.50;7.70;;;19.10;99.90;;;;;;5110556;28;20286;-74
2021/09/27 07:13:55;;;;;;;7.80;7.20;;;19.20;99.90;;;;;;5110440;28;20218;-74
2021/09/27 07:16:22;;;;;;;8.00;7.40;;;19.20;99.90;;;;;;5110301;28;20206;-74
2021/09/27 07:18:49;;;;;;;8.27;7.57;;;19.20;99.90;;;;;;5110218;28;20202;-74
2021/09/27 07:21:17;;;;;;;8.23;7.53;;;19.20;99.90;;;;;;5110286;28;20703;-74
2021/09/27 07:23:43;;;;;;;8.33;7.53;;;19.20;99.90;;;;;;5110192;28;20287;-74
2021/09/27 07:26:13;;;;;;;8.13;7.43;;;19.20;99.90;;;;;;5110229;28;20262;-74
2021/09/27 07:28:40;;;;;;;8.53;7.67;;;19.20;99.90;;;;;;5110192;28;20202;-74
2021/09/27 07:31:12;;;;;;;8.27;7.57;;;19.30;99.90;;;;;;5109619;28;20575;-74
2021/09/27 07:33:40;;;;;;;8.63;7.90;;;19.30;99.90;;;;;;5109901;28;20241;-75
2021/09/27 07:36:08;;;;;;;8.13;7.40;;;19.30;99.90;;;;;;5109867;28;21172;-74
2021/09/27 07:38:36;;;;;;;8.40;7.80;;;19.40;99.90;;;;;;5109926;28;20230;-74
2021/09/27 07:41:04;;;;;;;7.77;7.27;;;19.40;99.90;;;;;;5109665;28;20226;-74
2021/09/27 07:43:31;;;;;;;7.93;7.33;;;19.40;99.90;;;;;;5109928;28;20247;-74
2021/09/27 07:45:58;;;;;;;8.77;8.03;;;19.50;99.90;;;;;;5109466;28;20722;-74
2021/09/27 07:48:24;;;;;;;9.00;8.10;;;19.50;99.90;;;;;;5109584;28;20247;-74
2021/09/27 07:50:53;;;;;;;8.40;7.73;;;19.40;99.90;;;;;;5109795;28;20206;-75
2021/09/27 07:53:22;;;;;;;7.73;7.13;;;19.40;99.90;;;;;;5109576;28;20563;-74
2021/09/27 07:55:50;;;;;;;11.60;7.13;;;19.40;99.90;;;;;;5109603;28;20237;-74
2021/09/27 07:58:18;;;;;;;8.23;7.53;;;19.40;99.90;;;;;;5109043;28;20597;-74
2021/09/27 08:00:47;;;;;;;8.37;7.63;;;19.40;99.90;;;;;;5109554;28;20222;-74
2021/09/27 08:03:14;;;;;;;8.20;7.37;;;19.40;99.90;;;;;;5108987;28;20602;-74
2021/09/27 08:05:42;;;;;;;8.27;7.50;;;19.50;99.90;;;;;;5109409;28;20613;-74
2021/09/27 08:08:08;;;;;;;8.53;7.60;;;19.50;99.90;;;;;;5109175;28;20267;-74
2021/09/27 08:10:37;;;;;;;8.13;7.53;;;19.40;99.90;;;;;;5109323;28;20207;-74
2021/09/27 08:13:05;;;;;;;8.40;7.60;;;19.50;99.90;;;;;;5109287;28;20252;-74
2021/09/27 08:15:36;;;;;;;8.50;7.77;;;19.60;99.90;;;;;;5109237;28;20202;-74
2021/09/27 08:18:04;;;;;;;8.83;8.03;;;19.60;99.90;;;;;;5108991;28;20190;-74
2021/09/27 08:20:33;;;;;;;8.67;7.83;;;19.70;99.90;;;;;;5109302;28;20206;-75
2021/09/27 08:23:01;;;;;;;8.23;7.63;;;19.70;99.90;;;;;;5108833;28;20225;-74
2021/09/27 08:25:28;;;;;;;8.40;7.67;;;19.70;99.90;;;;;;5109139;28;20250;-74
2021/09/27 08:27:55;;;;;;;10.10;7.83;;;19.70;99.90;;;;;;5108655;28;20656;-74
2021/09/27 08:30:27;;;;;;;8.77;8.07;;;19.80;99.90;;;;;;5108918;28;20213;-74
2021/09/27 08:32:54;;;;;;;8.83;8.03;;;19.80;99.90;;;;;;5108997;28;20194;-74
2021/09/27 08:35:21;;;;;;;8.67;7.93;;;19.80;99.90;;;;;;5108845;28;20251;-74
2021/09/27 08:37:48;;;;;;;8.47;7.83;;;19.70;99.90;;;;;;5108763;28;20206;-74
2021/09/27 08:40:30;;;;;;;8.47;7.87;;;19.70;99.90;;;;;;5108478;28;20670;-74
2021/09/27 08:42:59;;;;;;;9.23;8.43;;;19.70;99.90;;;;;;5108336;28;20226;-74
2021/09/27 08:45:29;;;;;;;9.60;8.60;;;19.70;99.90;;;;;;5108795;28;20219;-74
2021/09/27 08:48:02;;;;;;;9.87;8.93;;;19.70;99.90;;;;;;5108783;28;20322;-74
2021/09/27 08:50:31;;;;;;;9.70;8.67;;;19.80;99.90;;;;;;5108916;28;20190;-74
2021/09/27 08:53:01;;;;;;;9.33;8.43;;;19.70;99.90;;;;;;5108532;28;20601;-74
2021/09/27 08:55:30;;;;;;;8.87;8.07;;;19.80;99.90;;;;;;5108512;28;20612;-74
2021/09/27 08:58:05;;;;;;;9.00;8.40;;;19.80;99.90;;;;;;5108219;28;20307;-73
2021/09/27 09:00:38;;;;;;;9.83;8.93;;;19.90;99.90;;;;;;5108332;28;20583;-73
2021/09/27 09:03:13;;;;;;;9.30;8.50;;;19.90;99.90;;;;;;5108147;28;20233;-74
2021/09/27 09:05:47;;;;;;;8.97;8.23;;;19.90;99.90;;;;;;5108522;28;20254;-73
2021/09/27 09:08:22;;;;;;;9.70;8.80;;;19.90;99.90;;;;;;5108027;28;20578;-74
2021/09/27 09:10:56;;;;;;;8.90;7.97;;;19.90;99.90;;;;;;5108452;28;20185;-73
2021/09/27 09:13:28;;;;;;;9.50;8.60;;;19.90;99.90;;;;;;5108312;28;20285;-74
2021/09/27 09:16:01;;;;;;;9.17;8.30;;;20.00;99.90;;;;;;5108583;28;20187;-74
2021/09/27 09:18:32;;;;;;;8.33;7.63;;;20.00;99.90;;;;;;5108413;28;20198;-73
2021/09/27 09:21:04;;;;;;;9.93;8.27;;;20.00;99.90;;;;;;5108501;28;20194;-73
2021/09/27 09:23:33;;;;;;;11.57;8.30;;;20.00;99.90;;;;;;5108693;28;20187;-73
2021/09/27 09:26:02;;;;;;;9.60;8.70;;;20.00;99.90;;;;;;5108978;28;20202;-73
2021/09/27 09:28:28;;;;;;;9.43;8.40;;;20.00;99.90;;;;;;5112591;28;20263;-74
2021/09/27 09:31:04;;;;;;;9.57;8.77;;;19.90;99.90;;;;;;5112497;28;20262;-74
2021/09/27 09:33:37;;;;;;;8.77;8.10;;;19.90;99.90;;;;;;5112367;28;20198;-74
2021/09/27 09:36:04;;;;;;;9.80;9.00;;;19.80;99.90;;;;;;5112223;28;20233;-74
2021/09/27 09:38:34;;;;;;;9.60;8.57;;;19.80;99.90;;;;;;5112278;28;20226;-74
2021/09/27 09:41:01;;;;;;;9.33;8.50;;;19.80;99.90;;;;;;5112124;28;20292;-74
2021/09/27 09:43:31;;;;;;;9.00;8.20;;;19.90;99.90;;;;;;5112193;28;20275;-74
2021/09/27 09:46:09;;;;;;;9.80;8.80;;;19.90;99.90;;;;;;5112214;28;20214;-74
2021/09/27 09:48:36;;;;;;;9.83;9.03;;;19.90;99.90;;;;;;5112262;28;20243;-74
2021/09/27 09:51:19;;;;;;;8.97;8.27;;;19.90;99.90;;;;;;5111850;28;20198;-74
2021/09/27 09:54:00;;;;;;;9.33;8.53;;;20.00;99.90;;;;;;5112266;28;20244;-74
2021/09/27 09:56:33;;;;;;;9.93;9.03;;;20.00;99.90;;;;;;5111847;27;20242;-74
2021/09/27 09:59:02;;;;;;;9.93;8.90;;;20.10;99.90;;;;;;5111390;28;20233;-74
2021/09/27 10:01:33;;;;;;;10.20;9.30;;;20.10;99.90;;;;;;5111736;28;20226;-74
2021/09/27 10:04:03;;;;;;;9.63;8.83;;;20.20;99.90;;;;;;5111809;28;20562;-74
2021/09/27 10:06:37;;;;;;;10.40;9.40;;;20.20;99.90;;;;;;5111678;28;20202;-74
2021/09/27 10:09:07;;;;;;;10.33;9.33;;;20.20;99.90;;;;;;5111233;28;20974;-74
2021/09/27 10:11:37;;;;;;;11.47;9.73;;;20.20;99.90;;;;;;5111523;28;20246;-74
2021/09/27 10:14:19;;;;;;;9.63;8.70;;;20.20;99.90;;;;;;5111606;28;20279;-73
2021/09/27 10:16:50;;;;;;;10.00;9.20;;;20.20;99.90;;;;;;5111553;28;20186;-74
2021/09/27 10:19:24;;;;;;;9.87;9.07;;;20.20;99.90;;;;;;5111281;28;20194;-74
2021/09/27 10:21:57;;;;;;;10.60;9.50;;;20.20;99.90;;;;;;5111647;28;20217;-74
2021/09/27 10:24:33;;;;;;;10.83;9.73;;;20.30;99.90;;;;;;5111367;28;20241;-74
2021/09/27 10:27:02;;;;;;;9.90;8.97;;;20.40;99.90;;;;;;5111629;28;20190;-74
2021/09/27 10:29:31;;;;;;;9.27;8.47;;;20.40;99.90;;;;;;5111302;28;20255;-74
2021/09/27 10:32:03;;;;;;;10.60;8.63;;;20.50;99.90;;;;;;5111216;28;20247;-75
2021/09/27 10:34:33;;;;;;;9.87;8.27;;;20.60;99.90;;;;;;5111461;28;20255;-74
2021/09/27 10:37:06;;;;;;;9.70;8.70;;;20.70;99.90;;;;;;5111008;28;20320;-74
2021/09/27 10:39:33;;;;;;;8.93;7.90;;;20.80;99.90;;;;;;5110698;28;20226;-74
2021/09/27 10:42:03;;;;;;;8.33;7.73;;;20.80;99.90;;;;;;5110668;27;20728;-74
2021/09/27 10:44:35;;;;;;;7.85;7.15;;;20.90;99.90;;;;;;5111008;28;20186;-74
2021/09/27 10:47:07;;;;;;;8.50;7.70;;;21.00;99.90;;;;;;5110776;28;20210;-74
2021/09/27 10:49:38;;;;;;;9.00;8.07;;;21.10;99.90;;;;;;5111157;28;20247;-74
2021/09/27 10:52:14;;;;;;;7.60;6.90;;;21.10;99.90;;;;;;5110876;28;20199;-74
2021/09/27 10:54:44;;;;;;;7.40;6.80;;;21.30;99.90;;;;;;5110988;28;20245;-74
2021/09/27 10:57:18;;;;;;;8.20;7.43;;;21.30;99.90;;;;;;5110552;28;20683;-74
2021/09/27 10:59:55;;;;;;;7.43;6.93;;;21.40;99.90;;;;;;5110931;28;20651;-74
2021/09/27 11:02:29;;;;;;;7.03;6.40;;;21.40;99.90;;;;;;5110463;28;20238;-74
2021/09/27 11:05:06;;;;;;;6.78;6.28;;;21.40;99.90;;;;;;5110434;28;20190;-74
2021/09/27 11:07:40;;;;;;;7.97;7.05;;;21.40;99.90;;;;;;5110481;28;20248;-75
2021/09/27 11:10:15;;;;;;;7.75;6.60;;;21.40;99.90;;;;;;5110239;28;20242;-75
2021/09/27 11:12:43;;;;;;;7.72;6.95;;;21.30;99.90;;;;;;5110286;28;20246;-74
2021/09/27 11:15:22;;;;;;;7.32;6.65;;;21.30;99.90;;;;;;5110341;28;20206;-74
2021/09/27 11:18:07;;;;;;;6.90;6.33;;;21.30;99.90;;;;;;5110181;28;20217;-74
2021/09/27 11:21:09;;;;;;;6.85;6.35;;;21.30;99.90;;;;;;5110293;28;20198;-74
2021/09/27 11:23:38;;;;;;;6.57;6.07;;;21.30;99.90;;;;;;5110379;27;20237;-74
2021/09/27 11:26:31;;;;;;;6.50;6.00;;;21.30;99.90;;;;;;5109886;28;20665;-74
2021/09/27 11:29:27;;;;;;;7.10;6.60;;;21.30;99.90;;;;;;5101432;28;20271;-74
2021/09/27 11:32:29;;;;;;;7.38;6.70;;;21.30;99.90;;;;;;5107999;28;20198;-75
2021/09/27 11:35:08;;;;;;;7.80;7.03;;;21.30;99.90;;;;;;5092426;28;20296;-74
2021/09/27 11:37:56;;;;;;;7.10;6.47;;;21.20;99.90;;;;;;5109311;27;20268;-74
2021/09/27 11:40:36;;;;;;;7.38;6.65;;;21.30;99.90;;;;;;5109304;28;20660;-74
2021/09/27 11:43:23;;;;;;;6.82;6.32;;;21.30;99.90;;;;;;5109460;28;20280;-74
2021/09/27 11:45:54;;;;;;;7.15;6.60;;;21.30;99.90;;;;;;5110047;28;20318;-74
2021/09/27 11:48:51;;;;;;;6.80;6.20;;;21.20;99.90;;;;;;5109237;28;20200;-74
2021/09/27 11:51:26;;;;;;;6.50;5.90;;;20.80;99.90;;;;;;5109624;28;20194;-74
2021/09/27 11:54:11;;;;;;;6.90;6.30;;;20.70;99.90;;;;;;5109706;28;20201;-74
2021/09/27 11:56:46;;;;;;;6.60;6.10;;;20.80;99.90;;;;;;5109403;28;20194;-74
2021/09/27 11:59:21;;;;;;;6.63;6.13;;;20.80;99.90;;;;;;5108833;28;20266;-74
2021/09/27 12:01:54;;;;;;;6.50;5.97;;;20.80;99.90;;;;;;5109284;28;20193;-74
2021/09/27 12:04:37;;;;;;;6.83;6.33;;;20.90;99.90;;;;;;5108816;28;20247;-74
2021/09/27 12:07:09;;;;;;;7.10;6.40;;;20.80;99.90;;;;;;5109070;28;20709;-74
2021/09/27 12:09:42;;;;;;;6.30;5.90;;;20.80;99.90;;;;;;5109446;28;20216;-74
2021/09/27 12:12:19;;;;;;;6.80;6.20;;;20.90;99.90;;;;;;5109441;28;20198;-74
2021/09/27 12:14:48;;;;;;;8.60;6.60;;;20.80;99.90;;;;;;5109226;28;20598;-74
2021/09/27 12:17:18;;;;;;;7.07;6.55;;;20.90;99.90;;;;;;5109145;28;20281;-75
2021/09/27 12:19:51;;;;;;;7.40;6.90;;;20.90;99.90;;;;;;5109386;28;20286;-74
2021/09/27 12:22:23;;;;;;;6.87;6.37;;;20.90;99.90;;;;;;5108882;28;20226;-74
2021/09/27 12:24:51;;;;;;;6.93;6.33;;;20.90;99.90;;;;;;5109055;28;20186;-74
2021/09/27 12:27:21;;;;;;;6.73;6.13;;;20.70;99.90;;;;;;5108777;28;20260;-74
2021/09/27 12:29:54;;;;;;;7.10;6.60;;;20.80;99.90;;;;;;5109019;28;20201;-75
2021/09/27 12:32:27;;;;;;;7.07;6.47;;;20.80;99.90;;;;;;5108842;28;20252;-74
2021/09/27 12:34:55;;;;;;;6.70;6.10;;;20.90;99.90;;;;;;5108976;28;20226;-74
2021/09/27 12:37:23;;;;;;;6.80;6.30;;;21.00;99.90;;;;;;5108714;28;20225;-75
2021/09/27 12:39:51;;;;;;;7.43;6.65;;;21.00;99.90;;;;;;5108829;28;20214;-74
2021/09/27 12:42:22;;;;;;;6.87;6.27;;;21.10;99.90;;;;;;5108512;28;20198;-75
2021/09/27 12:44:56;;;;;;;7.57;7.03;;;21.10;99.90;;;;;;5108809;28;20195;-74
2021/09/27 12:47:23;;;;;;;7.37;6.80;;;21.00;99.90;;;;;;5108215;28;20712;-75
2021/09/27 12:49:52;;;;;;;7.10;6.60;;;21.00;99.90;;;;;;5108769;28;20202;-74
2021/09/27 12:52:37;;;;;;;7.93;7.23;;;21.00;99.90;;;;;;5108629;28;20214;-74
2021/09/27 12:55:09;;;;;;;7.03;6.53;;;21.00;99.90;;;;;;5108774;28;20191;-74
2021/09/27 12:57:40;;;;;;;7.60;7.07;;;21.00;99.90;;;;;;5108216;28;20283;-74
2021/09/27 13:00:10;;;;;;;7.50;7.00;;;21.00;99.90;;;;;;5109416;28;20257;-74
2021/09/27 13:02:43;;;;;;;7.33;6.73;;;21.00;99.90;;;;;;5112457;28;20638;-75
2021/09/27 13:05:15;;;;;;;8.20;7.53;;;21.00;99.90;;;;;;5112787;28;20205;-74
2021/09/27 13:07:44;;;;;;;7.80;7.20;;;21.00;99.90;;;;;;5112886;27;20190;-74
2021/09/27 13:10:25;;;;;;;8.60;7.90;;;20.90;99.90;;;;;;5112732;28;20206;-74
2021/09/27 13:13:14;;;;;;;8.40;7.80;;;20.90;99.90;;;;;;5112807;28;20194;-74
2021/09/27 13:15:44;;;;;;;7.97;7.40;;;20.90;99.90;;;;;;5106859;27;20679;-75
2021/09/27 13:18:13;;;;;;;8.43;7.73;;;20.80;99.90;;;;;;5112718;28;20217;-74
2021/09/27 13:20:49;;;;;;;8.30;7.80;;;20.90;99.90;;;;;;5112836;28;20210;-74
2021/09/27 13:23:23;;;;;;;8.63;8.03;;;20.90;99.90;;;;;;5112089;28;20221;-74